Keesler Air Force Base Biloxi US
ICAO: KBIX
IATA: BIX
Category: Medium
Scheduled Services: No

Elevation: 33 ft
TransAlt. 18000 ft.

Airport Communications:
GULFPORT APP/DEP:124.6
ATIS:25.6
CLNC DEL:121.8
GND:121.8
AEROMEDICAL EVAC:23.66
PMSV METRO:34.46
403 WG AFRC COMD:25.28
PTD:37.22
TWR:120.75

KBIX Zoom In..

If you have problems with the map follow the link
https://www.worldairports.se/pages/airport.php?
ICAO=KBIX

Runways:

(A) RW 03 length 7630 ft width 150 ft
---- / hdg 34

(B) RW 21 length 7630 ft width 150 ft
ILS 109.70 / hdg 214

Location; KBIX
Day. 21 / Time. 05.56 Zulu
* Altimeter: 30.43
* Temperature: 02° c. 35.6°f.
* Wind from: 360° Speed 07 kn.
Dewpoint: -05° c.
Visibility: 10 Statute Miles.
Clouds: Clear (automated report).

KBIX 210556Z AUTO 36007KT 10SM CLR 02/M05 A3043 RMK AO2 SLP308 T00231049 10066 20023 400970019 58005 $


Wind From 360°
Speed 07 kn.

 
 
jpsmedia worldairports.se 2020   terms of use